« Back
NWS Peachtree City, Ga » Text Product » AHN Terminal Aerodrome Forecast


Printer-friendly Version
Current Version              Previous Versions:   1  2  3  4  5  6  7  8  9  

Terminal Aerodrome Forecast

924
FTUS42 KFFC 200500
TAFAHN
TAF
KAHN 200520Z 2006/2106 05010G16KT P6SM OVC030
     FM201400 05012G20KT P6SM BKN040
     FM201800 07012G20KT P6SM SCT250
     FM210000 07006KT P6SM SCT250=

USA.gov is the U.S. government's official web portal to all federal, state and local government web resources and services.